Palmerton, Pennsylvania
Current Conditions -  °F | °C
As of 12:51 PM on Thursday 18 Dec 2014 (Local Time) from KABE Reporting Station
Overcast Overcast  
Wind Chill:   Ceiling: 4200
Heat Index:   Visibility: 10mi
Dew Point: -6°   Wind: 12mph
Humidity: 50%   Direction: 260°W
Pressure: 30"   Gusts: NA
Location:  40.8°N, 75.62°W
Report Text: KABE 181751Z 26010KT 10SM OVC042 04/M06 A3000 RMK AO2 SLP164 T00391056 10039 20017 58015
Loading
Personal Weather Stations






























Interactive Weather Map New forecast layout! Learn more

10-Day Weather Forecast

Advertisements
Track Severe Weather on mobile